Time;durP1;ratioP1;P1;durP2;ratioP2;P2;SDS_P1;SDS_P2;PMS_P1;PMS_P2;Temp;Humidity;BMP_temperature;BMP_pressure;BME280_temperature;BME280_humidity;BME280_pressure;Samples;Min_cycle;Max_cycle;Signal;HPM_P1;HPM_P2
2022/07/13 00:04:31;;;;;;;6.97;5.07;;;;;;;11.41;78.49;98101.66;10377561;28;20068;-55
2022/07/13 00:09:30;;;;;;;7.00;4.35;;;;;;;11.33;79.84;98115.50;10377846;28;20488;-55
2022/07/13 00:14:29;;;;;;;7.20;5.47;;;;;;;11.31;79.10;98115.47;10377356;28;20132;-55
2022/07/13 00:19:28;;;;;;;8.30;5.80;;;;;;;11.27;79.31;98121.56;10376974;28;20071;-55
2022/07/13 00:24:26;;;;;;;8.90;5.57;;;;;;;11.27;78.80;98125.84;10377351;28;20025;-55
2022/07/13 00:29:25;;;;;;;8.48;7.05;;;;;;;11.22;79.36;98124.16;10374204;28;20397;-55
2022/07/13 00:34:24;;;;;;;8.32;5.63;;;;;;;11.12;80.30;98118.91;10373059;28;20044;-55
2022/07/13 00:39:23;;;;;;;8.43;5.78;;;;;;;11.11;80.95;98118.03;10373041;28;20045;-55
2022/07/13 00:44:23;;;;;;;7.85;5.90;;;;;;;11.15;80.50;98121.50;10371624;28;20028;-55
2022/07/13 00:49:22;;;;;;;9.48;6.45;;;;;;;11.18;79.88;98113.75;10372725;28;20078;-55
2022/07/13 00:54:29;;;;;;;8.68;7.38;;;;;;;11.18;81.13;98116.34;10373392;28;20179;-55
2022/07/13 00:59:28;;;;;;;11.52;6.93;;;;;;;11.21;81.43;98116.34;10372656;28;20072;-55
2022/07/13 01:04:27;;;;;;;9.48;6.32;;;;;;;11.19;80.60;98124.13;10372592;28;20060;-55
2022/07/13 01:09:26;;;;;;;9.75;6.40;;;;;;;11.16;81.87;98111.13;10372125;28;20068;-55
2022/07/13 01:14:25;;;;;;;;;;;;;;;11.09;81.59;98105.94;10372928;28;20057;-55
2022/07/13 01:19:25;;;;;;;9.43;7.13;;;;;;;11.01;82.07;98106.78;10371973;28;19944;-55
2022/07/13 01:24:24;;;;;;;9.23;6.00;;;;;;;10.89;81.88;98098.91;10372352;28;20064;-55
2022/07/13 01:29:23;;;;;;;;;;;;;;;10.84;82.32;98104.06;10372382;28;20067;-55
2022/07/13 01:34:22;;;;;;;10.23;6.07;;;;;;;10.78;81.83;98103.19;10371520;28;19916;-55
2022/07/13 01:39:22;;;;;;;9.75;6.35;;;;;;;10.67;82.20;98108.34;10371786;28;20052;-55
2022/07/13 01:44:20;;;;;;;8.25;5.60;;;;;;;10.67;82.80;98110.06;10371808;28;20060;-55
2022/07/13 01:49:19;;;;;;;10.27;6.93;;;;;;;10.61;82.49;98106.59;10371194;28;20032;-55
2022/07/13 01:54:18;;;;;;;9.18;6.38;;;;;;;10.59;82.19;98103.13;10371702;28;20039;-55
2022/07/13 01:59:17;;;;;;;11.88;6.65;;;;;;;10.52;83.57;98108.25;10375645;28;20039;-55
2022/07/13 02:04:16;;;;;;;9.13;5.95;;;;;;;10.51;82.95;98097.00;10378999;28;20033;-55
2022/07/13 02:09:15;;;;;;;7.30;5.60;;;;;;;10.40;83.18;98109.94;10378818;28;20032;-55
2022/07/13 02:14:14;;;;;;;6.55;5.65;;;;;;;10.34;83.75;98109.91;10378612;28;20033;-55
2022/07/13 02:19:13;;;;;;;7.70;5.82;;;;;;;10.06;84.51;98103.69;10378206;28;20121;-55
2022/07/13 02:24:12;;;;;;;9.85;5.82;;;;;;;9.85;84.50;98103.53;10378291;28;20120;-55
2022/07/13 02:29:11;;;;;;;7.00;5.78;;;;;;;9.75;84.60;98105.19;10378369;28;20079;-55
2022/07/13 02:34:10;;;;;;;9.40;6.72;;;;;;;9.69;85.13;98103.41;10377938;28;20112;-55
2022/07/13 02:39:09;;;;;;;10.60;6.53;;;;;;;9.71;85.41;98101.69;10376431;28;20132;-55
2022/07/13 02:44:08;;;;;;;8.63;6.50;;;;;;;9.72;85.50;98106.03;10377760;28;20515;-55
2022/07/13 02:49:07;;;;;;;9.63;6.97;;;;;;;9.77;85.05;98101.75;10377309;28;20115;-55
2022/07/13 02:54:06;;;;;;;9.80;6.80;;;;;;;9.82;85.56;98099.19;10376968;28;20064;-55
2022/07/13 02:59:05;;;;;;;9.25;6.68;;;;;;;9.82;86.08;98098.34;10377219;28;20029;-55
2022/07/13 03:04:04;;;;;;;11.70;7.55;;;;;;;9.85;85.61;98104.41;10376879;28;20523;-55
2022/07/13 03:09:03;;;;;;;;;;;;;;;9.90;85.98;98107.88;10376094;28;20057;-55
2022/07/13 03:14:02;;;;;;;11.30;6.43;;;;;;;9.90;85.95;98091.47;10376704;28;19956;-55
2022/07/13 03:19:01;;;;;;;;;;;;;;;9.96;86.30;98100.16;10376979;28;20072;-55
2022/07/13 03:23:59;;;;;;;8.68;6.63;;;;;;;10.07;86.01;98101.94;10376597;28;20007;-55
2022/07/13 03:28:58;;;;;;;10.50;7.50;;;;;;;10.10;86.55;98100.25;10375897;28;20108;-56
2022/07/13 03:33:58;;;;;;;10.95;7.30;;;;;;;10.20;86.55;98102.03;10375601;28;20120;-55
2022/07/13 03:38:56;;;;;;;;;;;;;;;10.23;86.55;98103.78;10375973;28;20542;-55
2022/07/13 03:43:55;;;;;;;10.68;7.10;;;;;;;10.19;86.15;98105.50;10375001;28;20483;-55
2022/07/13 03:48:54;;;;;;;12.68;7.35;;;;;;;10.23;86.33;98101.19;10375126;28;20476;-55
2022/07/13 03:53:54;;;;;;;10.70;7.10;;;;;;;10.34;86.00;98104.72;10375145;28;20053;-55
2022/07/13 03:58:53;;;;;;;10.68;7.05;;;;;;;10.38;85.38;98110.81;10373128;28;20045;-55
2022/07/13 04:03:52;;;;;;;9.07;7.25;;;;;;;10.28;86.31;98114.19;10374957;28;20119;-55
2022/07/13 04:08:51;;;;;;;10.27;6.20;;;;;;;10.22;86.25;98106.38;10374496;28;20032;-55
2022/07/13 04:13:50;;;;;;;10.38;6.43;;;;;;;10.25;86.29;98114.19;10373976;28;20075;-55
2022/07/13 04:18:49;;;;;;;10.80;6.50;;;;;;;10.15;86.69;98121.91;10373631;28;20109;-55
2022/07/13 04:23:49;;;;;;;8.32;6.35;;;;;;;10.21;86.53;98118.47;10373669;28;20120;-55
2022/07/13 04:28:48;;;;;;;12.52;7.30;;;;;;;10.28;86.46;98124.56;10373733;28;20069;-55
2022/07/13 04:33:47;;;;;;;8.70;6.07;;;;;;;10.46;85.81;98122.06;10373747;28;20043;-55
2022/07/13 04:38:46;;;;;;;9.07;6.85;;;;;;;10.64;86.15;98128.25;10343636;28;20526;-55
2022/07/13 04:43:45;;;;;;;8.55;5.38;;;;;;;10.86;85.72;98131.78;10350045;28;20126;-55
2022/07/13 04:48:44;;;;;;;9.10;6.18;;;;;;;10.92;84.74;98130.09;10373781;28;20056;-55
2022/07/13 04:53:43;;;;;;;8.35;5.93;;;;;;;11.19;84.26;98133.66;10372879;28;20433;-55
2022/07/13 04:58:42;;;;;;;8.07;5.82;;;;;;;11.48;84.47;98122.44;10367689;28;20035;-55
2022/07/13 05:03:41;;;;;;;;;;;;;;;11.61;83.29;98125.03;10367167;28;20053;-55
2022/07/13 05:08:40;;;;;;;9.35;6.22;;;;;;;11.64;82.98;98127.66;10370262;28;19992;-54
2022/07/13 05:13:39;;;;;;;;;;;;;;;11.80;83.38;98128.53;10372588;28;20052;-55
2022/07/13 05:18:38;;;;;;;6.65;5.28;;;;;;;11.94;82.86;98125.91;10369685;28;20003;-55
2022/07/13 05:23:37;;;;;;;9.75;6.05;;;;;;;12.28;82.77;98134.59;10337321;28;20025;-55
2022/07/13 05:28:36;;;;;;;7.35;4.95;;;;;;;12.52;80.76;98132.81;10366822;28;20053;-55
2022/07/13 05:33:35;;;;;;;11.20;5.90;;;;;;;12.73;79.83;98127.53;10372483;28;20037;-55
2022/07/13 05:38:34;;;;;;;8.52;5.95;;;;;;;13.01;79.51;98123.94;10375062;28;20041;-55
2022/07/13 05:43:33;;;;;;;8.90;5.60;;;;;;;13.29;78.78;98124.66;10376824;28;20033;-55
2022/07/13 05:48:34;;;;;;;7.78;5.75;;;;;;;13.49;77.10;98116.69;10376402;28;20279;-55
2022/07/13 05:53:33;;;;;;;9.70;5.55;;;;;;;13.74;76.67;98113.06;10377192;28;20072;-55
2022/07/13 05:58:32;;;;;;;8.88;5.40;;;;;;;14.12;75.40;98118.84;10377137;28;20033;-55
2022/07/13 06:03:31;;;;;;;8.25;5.78;;;;;;;14.38;74.66;98114.25;10376290;28;20390;-55
2022/07/13 06:08:30;;;;;;;7.05;5.10;;;;;;;14.72;73.41;98100.81;10377585;28;20354;-55
2022/07/13 06:13:29;;;;;;;7.78;5.63;;;;;;;14.92;71.41;98092.75;10377796;28;20487;-55
2022/07/13 06:18:28;;;;;;;10.10;5.50;;;;;;;15.18;70.47;98084.56;10376884;28;20488;-55
2022/07/13 06:23:27;;;;;;;;;;;;;;;15.56;69.68;98085.72;10377648;28;20040;-55
2022/07/13 06:28:26;;;;;;;10.95;6.68;;;;;;;15.82;68.66;98087.94;10377551;28;20379;-55
2022/07/13 06:33:25;;;;;;;;;;;;;;;16.06;67.89;98091.03;10378316;28;20036;-55
2022/07/13 06:38:23;;;;;;;8.40;6.68;;;;;;;16.37;66.63;98078.25;10377328;28;20008;-55
2022/07/13 06:43:22;;;;;;;;;;;;;;;16.79;66.30;98077.41;10379845;28;20407;-55
2022/07/13 06:48:21;;;;;;;8.65;5.03;;;;;;;17.20;65.54;98071.31;10354626;28;19951;-55
2022/07/13 06:53:20;;;;;;;;;;;;;;;17.55;62.36;98064.38;10363849;28;20124;-56
2022/07/13 06:58:19;;;;;;;8.52;4.03;;;;;;;17.86;62.15;98066.28;10350645;28;19917;-56
2022/07/13 07:03:18;;;;;;;17.65;5.72;;;;;;;18.12;58.96;98055.94;10353924;28;20484;-55
2022/07/13 07:08:17;;;;;;;8.90;4.65;;;;;;;18.45;56.48;98057.72;10359432;28;20406;-55
2022/07/13 07:13:16;;;;;;;9.48;2.85;;;;;;;18.75;52.99;98058.63;10352650;28;20072;-55
2022/07/13 07:18:15;;;;;;;5.80;2.38;;;;;;;19.00;50.02;98062.25;10355428;28;20068;-55
2022/07/13 07:23:14;;;;;;;5.95;2.35;;;;;;;19.28;49.85;98061.44;10360947;28;20108;-56
2022/07/13 07:28:13;;;;;;;5.00;2.10;;;;;;;19.62;47.89;98071.75;10350666;28;20057;-56
2022/07/13 07:33:12;;;;;;;5.50;1.95;;;;;;;19.87;47.35;98066.53;10336633;28;20037;-56
2022/07/13 07:38:11;;;;;;;4.63;1.77;;;;;;;20.05;43.61;98064.22;10367062;28;20526;-56
2022/07/13 07:43:10;;;;;;;4.97;1.90;;;;;;;20.28;43.14;98066.91;10335425;28;20133;-56
2022/07/13 07:48:09;;;;;;;3.55;1.60;;;;;;;20.28;41.48;98066.03;10336669;28;20021;-56
2022/07/13 07:53:08;;;;;;;5.05;1.67;;;;;;;20.56;41.38;98054.53;10364632;28;20039;-56
2022/07/13 07:58:08;;;;;;;5.03;2.10;;;;;;;20.82;42.05;98043.91;10376153;28;20049;-55
2022/07/13 08:03:07;;;;;;;3.20;1.80;;;;;;;20.94;40.33;98047.84;10376268;28;20068;-56
2022/07/13 08:08:06;;;;;;;2.90;1.40;;;;;;;21.02;39.74;98043.13;10377035;28;20071;-56
2022/07/13 08:13:05;;;;;;;3.65;1.50;;;;;;;21.03;38.13;98047.50;10371911;28;20116;-56
2022/07/13 08:18:04;;;;;;;1.65;1.45;;;;;;;21.41;37.84;98045.16;10335646;28;20732;-56
2022/07/13 08:23:50;;;;;;;1.98;1.40;;;;;;;21.66;37.59;98049.41;10340297;28;20436;-56
2022/07/13 08:28:23;;;;;;;2.55;1.35;;;;;;;21.99;36.54;98043.69;10365340;28;20044;-56
2022/07/13 08:38:34;;;;;;;5.63;1.60;;;;;;;22.27;38.08;98043.34;10354970;28;20124;-56
2022/07/13 08:38:41;;;;;;;2.47;1.33;;;;;;;22.15;35.47;98050.88;10356496;28;20461;-56
2022/07/13 08:43:40;;;;;;;5.38;1.20;;;;;;;22.14;34.40;98040.41;10353967;28;20534;-56
2022/07/13 08:48:45;;;;;;;2.88;1.33;;;;;;;22.42;33.86;98047.97;10338397;28;20056;-56
2022/07/13 08:53:44;;;;;;;2.22;1.50;;;;;;;22.46;35.40;98041.63;10334269;28;20056;-56
2022/07/13 08:58:44;;;;;;;2.22;1.23;;;;;;;22.43;33.57;98032.97;10348219;28;20046;-56
2022/07/13 09:03:44;;;;;;;3.85;1.02;;;;;;;22.55;33.15;98032.41;10356494;28;20053;-56
2022/07/13 09:08:44;;;;;;;3.30;1.15;;;;;;;22.56;32.51;98018.28;10364707;28;20053;-56
2022/07/13 09:13:44;;;;;;;2.42;1.30;;;;;;;22.76;33.58;98027.97;10357001;28;20067;-56
2022/07/13 09:18:46;;;;;;;3.30;1.15;;;;;;;22.94;32.27;98024.47;10371642;28;20065;-56
2022/07/13 09:23:59;;;;;;;1.38;1.10;;;;;;;22.94;32.21;98020.97;10356851;28;20061;-56
2022/07/13 09:28:59;;;;;;;1.45;1.00;;;;;;;22.95;30.78;98033.25;10357197;28;20051;-56
2022/07/13 09:33:58;;;;;;;2.13;1.20;;;;;;;23.08;30.97;98033.56;10352525;28;20057;-56
2022/07/13 09:38:57;;;;;;;1.30;1.20;;;;;;;23.17;30.65;98033.13;10361357;28;20048;-56
2022/07/13 09:49:35;;;;;;;3.47;1.10;;;;;;;23.19;31.79;98029.47;10362345;28;20064;-56
2022/07/13 09:54:38;;;;;;;1.77;1.10;;;;;;;22.73;31.17;98036.88;10370648;28;20068;-56
2022/07/13 09:59:38;;;;;;;1.13;0.98;;;;;;;22.63;30.93;98026.78;10348871;28;20061;-56
2022/07/13 10:04:39;;;;;;;2.92;1.10;;;;;;;22.81;32.34;98039.19;10345506;28;20071;-56
2022/07/13 10:09:39;;;;;;;0.90;0.90;;;;;;;23.12;31.37;98051.00;10351073;28;20057;-56
2022/07/13 10:14:39;;;;;;;0.90;0.90;;;;;;;23.20;30.46;98028.53;10353876;28;20053;-56
2022/07/13 10:19:49;;;;;;;2.53;1.00;;;;;;;23.37;30.55;98017.13;10366291;28;20481;-56
2022/07/13 10:24:59;;;;;;;2.53;1.20;;;;;;;23.69;31.90;98013.84;10378229;28;20387;-56
2022/07/13 10:30:07;;;;;;;0.88;0.88;;;;;;;23.58;30.28;98009.97;10377859;28;20056;-56
2022/07/13 10:35:11;;;;;;;1.53;1.00;;;;;;;23.59;30.22;97976.38;10378766;28;20072;-56
2022/07/13 10:40:16;;;;;;;1.02;0.93;;;;;;;23.67;29.74;98010.41;10377876;28;20079;-56
2022/07/13 10:50:45;;;;;;;0.90;0.90;;;;;;;23.92;29.38;97988.84;10376944;28;20064;-56
2022/07/13 10:55:48;;;;;;;2.38;1.08;;;;;;;24.02;28.59;97976.81;10339659;28;20493;-56
2022/07/13 11:00:48;;;;;;;2.35;1.00;;;;;;;24.16;28.27;97986.69;10335915;28;20061;-56
2022/07/13 11:06:06;;;;;;;1.25;1.15;;;;;;;24.01;28.95;97983.91;10336254;28;20069;-56
2022/07/13 11:11:16;;;;;;;4.67;1.70;;;;;;;24.22;27.28;97986.44;10336282;28;20524;-56
2022/07/13 11:16:45;;;;;;;4.43;2.22;;;;;;;23.93;28.19;97986.09;10335792;28;20334;-57
2022/07/13 11:22:23;;;;;;;2.50;1.60;;;;;;;23.85;28.94;97980.34;10363783;28;20080;-56
2022/07/13 11:27:30;;;;;;;1.92;1.10;;;;;;;23.98;28.73;97954.03;10288232;28;20476;-56
2022/07/13 11:32:29;;;;;;;0.88;0.88;;;;;;;24.12;28.91;97958.63;10356284;28;20500;-56
2022/07/13 11:37:28;;;;;;;1.27;1.17;;;;;;;24.35;29.53;97952.97;10375615;28;20372;-56
2022/07/13 11:42:27;;;;;;;1.85;0.98;;;;;;;24.53;28.06;97958.25;10374836;28;20063;-56
2022/07/13 11:47:27;;;;;;;0.70;0.70;;;;;;;24.45;28.06;97962.19;10375579;28;20065;-56
2022/07/13 11:52:28;;;;;;;2.10;1.05;;;;;;;24.21;28.66;97947.56;10376043;28;20075;-56
2022/07/13 11:57:29;;;;;;;2.58;1.10;;;;;;;24.18;29.64;97940.63;10374673;28;20095;-56
2022/07/13 12:02:28;;;;;;;1.00;1.00;;;;;;;24.37;29.13;97937.84;10374810;28;20530;-56
2022/07/13 12:07:33;;;;;;;1.98;1.10;;;;;;;24.56;28.56;97947.47;10374583;28;20393;-56
2022/07/13 12:12:35;;;;;;;1.42;1.10;;;;;;;24.45;28.98;97934.78;10374065;28;20464;-56
2022/07/13 12:17:45;;;;;;;3.17;1.15;;;;;;;24.31;29.03;97937.31;10374161;28;20504;-56
2022/07/13 12:22:56;;;;;;;2.75;1.20;;;;;;;24.22;28.74;97941.34;10374021;28;20056;-56
2022/07/13 12:27:56;;;;;;;2.88;1.30;;;;;;;24.20;28.38;97935.25;10373746;28;20068;-56
2022/07/13 12:33:05;;;;;;;1.20;1.10;;;;;;;24.48;28.60;97918.72;10373787;28;20079;-56
2022/07/13 12:38:09;;;;;;;2.22;1.00;;;;;;;24.75;28.65;97926.91;10373082;28;20076;-56
2022/07/13 12:43:25;;;;;;;2.28;1.02;;;;;;;24.66;27.61;97933.63;10373086;28;20064;-56
2022/07/13 12:48:26;;;;;;;1.15;0.80;;;;;;;25.19;27.95;97907.63;10373346;28;20091;-56
2022/07/13 12:53:46;;;;;;;1.45;1.23;;;;;;;25.39;26.94;97910.97;10372818;28;20143;-56
2022/07/13 12:58:47;;;;;;;1.77;1.17;;;;;;;25.65;26.24;97918.25;10372800;28;20072;-56
2022/07/13 13:03:46;;;;;;;1.73;1.10;;;;;;;25.94;26.73;97902.34;10372494;28;20065;-56
2022/07/13 13:08:45;;;;;;;2.85;0.90;;;;;;;25.87;26.42;97906.31;10372623;28;20029;-56
2022/07/13 13:13:44;;;;;;;6.30;1.30;;;;;;;25.89;25.15;97918.56;10372962;28;20035;-56
2022/07/13 13:18:43;;;;;;;1.40;1.05;;;;;;;25.94;24.39;97912.97;10372216;28;20132;-56
2022/07/13 13:23:42;;;;;;;1.00;1.00;;;;;;;26.18;24.93;97910.59;10372260;28;20041;-56
2022/07/13 13:33:58;;;;;;;2.22;1.23;;;;;;;26.40;25.47;97907.50;10372086;28;20064;-57
2022/07/13 13:38:57;;;;;;;3.88;1.13;;;;;;;26.64;25.34;97909.56;10371898;28;20152;-56
2022/07/13 13:43:56;;;;;;;1.88;1.27;;;;;;;26.04;26.03;97918.59;10371973;28;20207;-56
2022/07/13 13:48:55;;;;;;;1.13;1.02;;;;;;;26.04;26.76;97914.16;10371890;28;20100;-56
2022/07/13 13:53:54;;;;;;;2.28;1.40;;;;;;;25.77;27.30;97913.16;10373835;28;20024;-56
2022/07/13 13:58:53;;;;;;;1.48;1.10;;;;;;;25.38;27.81;97911.88;10379192;28;20476;-56
2022/07/13 14:03:52;;;;;;;1.83;1.40;;;;;;;25.53;28.63;97900.38;10379276;28;20116;-56
2022/07/13 14:08:51;;;;;;;1.98;1.30;;;;;;;25.66;27.70;97901.34;10379029;28;20068;-56
2022/07/13 14:13:50;;;;;;;1.42;1.20;;;;;;;25.80;27.42;97903.19;10379063;28;20068;-56
2022/07/13 14:18:49;;;;;;;2.95;1.30;;;;;;;26.16;26.59;97905.41;10378461;28;20378;-56
2022/07/13 14:23:48;;;;;;;1.70;1.33;;;;;;;26.30;26.97;97901.91;10378588;28;20045;-56
2022/07/13 14:28:47;;;;;;;1.60;1.35;;;;;;;25.98;26.67;97909.19;10378250;28;20031;-56
2022/07/13 14:33:46;;;;;;;2.03;1.13;;;;;;;25.79;26.79;97909.47;10378107;28;20420;-56
2022/07/13 14:38:47;;;;;;;1.70;1.23;;;;;;;25.95;27.12;97888.97;10377794;28;20049;-56
2022/07/13 14:43:46;;;;;;;2.17;1.30;;;;;;;25.89;26.77;97888.47;10377448;28;20068;-56
2022/07/13 14:48:45;;;;;;;2.15;1.15;;;;;;;25.79;27.04;97882.03;10377421;28;20041;-56
2022/07/13 14:53:44;;;;;;;2.83;1.15;;;;;;;26.05;27.27;97883.09;10377537;28;20116;-56
2022/07/13 14:58:43;;;;;;;1.48;1.38;;;;;;;26.30;27.44;97887.72;10374480;28;20453;-56
2022/07/13 15:03:43;;;;;;;3.20;1.35;;;;;;;25.81;26.86;97890.75;10369499;28;20045;-56
2022/07/13 15:08:43;;;;;;;2.85;1.10;;;;;;;25.58;27.33;97879.72;10369699;28;20315;-56
2022/07/13 15:13:42;;;;;;;3.88;1.10;;;;;;;25.55;27.24;97879.91;10375792;28;20064;-56
2022/07/13 15:18:41;;;;;;;1.77;1.20;;;;;;;25.57;27.26;97875.31;10376388;28;20065;-56
2022/07/13 15:23:40;;;;;;;1.80;1.30;;;;;;;25.69;27.85;97876.38;10375472;28;20028;-56
2022/07/13 15:28:39;;;;;;;1.90;1.05;;;;;;;25.66;27.50;97880.09;10361018;28;20065;-56
2022/07/13 15:33:39;;;;;;;1.38;1.27;;;;;;;25.72;28.21;97876.22;10370214;28;20033;-56
2022/07/13 15:38:39;;;;;;;2.38;1.27;;;;;;;25.78;28.43;97874.97;10353084;28;20519;-56
2022/07/13 15:43:38;;;;;;;3.10;1.17;;;;;;;25.22;28.34;97862.34;10338056;28;20068;-56
2022/07/13 15:48:37;;;;;;;1.77;1.67;;;;;;;25.05;29.09;97865.09;10373341;28;20025;-56
2022/07/13 15:53:36;;;;;;;2.17;1.20;;;;;;;24.84;29.39;97877.78;10338093;28;20049;-56
2022/07/13 15:58:36;;;;;;;3.28;1.80;;;;;;;24.71;29.69;97869.66;10333580;28;20065;-56
2022/07/13 16:03:35;;;;;;;6.25;1.27;;;;;;;24.72;30.26;97874.03;10333611;28;20071;-56
2022/07/13 16:08:34;;;;;;;2.78;1.40;;;;;;;24.55;30.45;97877.63;10332519;28;20034;-56
2022/07/13 16:13:32;;;;;;;1.50;1.30;;;;;;;24.49;31.15;97883.25;10333387;28;20045;-56
2022/07/13 16:18:31;;;;;;;2.45;1.40;;;;;;;24.45;31.36;97882.59;10353743;28;20029;-56
2022/07/13 16:23:30;;;;;;;3.47;1.30;;;;;;;24.51;31.16;97893.81;10373822;28;20437;-56
2022/07/13 16:28:29;;;;;;;2.50;1.60;;;;;;;24.34;31.22;97884.97;10373306;28;20272;-56
2022/07/13 16:33:28;;;;;;;2.08;1.30;;;;;;;24.21;31.18;97886.56;10373353;28;20033;-56
2022/07/13 16:38:28;;;;;;;1.40;1.30;;;;;;;24.20;31.94;97892.84;10369186;28;20083;-56
2022/07/13 16:43:27;;;;;;;2.35;1.58;;;;;;;24.15;31.95;97897.50;10371187;28;20080;-56
2022/07/13 16:48:26;;;;;;;2.00;1.13;;;;;;;24.13;32.04;97902.03;10372740;28;20068;-56
2022/07/13 16:53:25;;;;;;;1.30;1.20;;;;;;;23.95;31.93;97904.69;10373303;28;20138;-56
2022/07/13 16:58:25;;;;;;;1.75;1.40;;;;;;;23.96;32.46;97911.72;10372178;28;20148;-56
2022/07/13 17:03:24;;;;;;;3.30;1.30;;;;;;;23.88;32.82;97919.22;10371476;28;20079;-56
2022/07/13 17:08:23;;;;;;;1.55;1.15;;;;;;;23.77;33.34;97921.56;10373212;28;20075;-56
2022/07/13 17:13:22;;;;;;;2.85;1.38;;;;;;;23.67;33.54;97925.63;10371868;28;20090;-56
2022/07/13 17:18:56;;;;;;;7.03;2.20;;;;;;;23.46;34.18;97938.16;10371336;28;20490;-56
2022/07/13 17:23:40;;;;;;;3.42;2.15;;;;;;;23.23;34.41;97941.03;10371885;28;20076;-56
2022/07/13 17:28:39;;;;;;;8.25;2.92;;;;;;;23.14;35.48;97933.53;10373249;28;20057;-56
2022/07/13 17:33:38;;;;;;;4.65;1.73;;;;;;;23.08;35.77;97944.41;10380297;28;20033;-56
2022/07/13 17:38:38;;;;;;;2.90;2.08;;;;;;;22.97;35.90;97941.41;10379845;28;20103;-56
2022/07/13 17:43:37;;;;;;;6.57;2.30;;;;;;;22.75;36.08;97942.44;10380604;28;20072;-56
2022/07/13 17:48:36;;;;;;;8.00;2.47;;;;;;;22.60;36.18;97951.09;10374565;28;20064;-56
2022/07/13 17:53:37;;;;;;;4.28;2.00;;;;;;;22.38;36.79;97952.06;10377970;28;20053;-56
2022/07/13 17:58:36;;;;;;;14.43;3.13;;;;;;;22.14;37.03;97961.09;10375098;28;20085;-56
2022/07/13 18:03:35;;;;;;;6.93;2.60;;;;;;;21.91;37.74;97973.50;10336587;28;20068;-56
2022/07/13 18:08:35;;;;;;;7.20;2.60;;;;;;;21.68;38.34;97971.00;10338191;28;20037;-55
2022/07/13 18:13:35;;;;;;;4.57;2.10;;;;;;;21.43;38.96;97979.94;10337136;28;20079;-56
2022/07/13 18:18:34;;;;;;;3.63;1.95;;;;;;;21.21;39.32;97982.59;10353261;28;20073;-55
2022/07/13 18:23:50;;;;;;;4.05;2.30;;;;;;;21.01;39.70;97993.91;10376769;28;20122;-55
2022/07/13 18:28:50;;;;;;;7.18;3.22;;;;;;;20.77;40.75;97990.44;10377645;28;20068;-55
2022/07/13 18:33:49;;;;;;;3.40;2.30;;;;;;;20.57;41.94;98001.75;10377531;28;20060;-56
2022/07/13 18:38:50;;;;;;;4.88;3.00;;;;;;;20.34;42.57;98001.72;10376097;28;20403;-56
2022/07/13 18:43:50;;;;;;;3.80;2.15;;;;;;;20.10;43.47;98012.22;10374439;28;20503;-55
2022/07/13 18:48:50;;;;;;;3.30;1.80;;;;;;;19.87;43.95;98024.41;10367102;28;20075;-55
2022/07/13 18:53:49;;;;;;;4.85;2.10;;;;;;;19.63;44.80;98027.88;10375289;28;20480;-55
2022/07/13 18:58:49;;;;;;;2.05;1.70;;;;;;;19.38;45.35;98031.28;10374513;28;20064;-55
2022/07/13 19:03:49;;;;;;;5.40;2.30;;;;;;;19.19;46.01;98038.03;10374362;28;20087;-56
2022/07/13 19:08:48;;;;;;;4.05;2.03;;;;;;;19.01;46.68;98047.34;10374067;28;20068;-55
2022/07/13 19:13:47;;;;;;;3.50;1.52;;;;;;;18.79;47.27;98052.38;10373134;28;20108;-55
2022/07/13 19:18:46;;;;;;;1.70;1.60;;;;;;;18.57;47.77;98047.72;10374165;28;20101;-55
2022/07/13 19:23:48;;;;;;;3.78;2.10;;;;;;;18.38;47.67;98065.75;10373820;28;20064;-55
2022/07/13 19:28:47;;;;;;;3.00;1.80;;;;;;;18.32;47.92;98058.06;10373320;28;20076;-55
2022/07/13 19:33:46;;;;;;;3.67;1.70;;;;;;;18.22;48.60;98066.22;10373088;28;20040;-55
2022/07/13 19:38:45;;;;;;;4.38;2.28;;;;;;;18.12;48.87;98076.09;10270779;28;2915044;-55
2022/07/13 19:43:46;;;;;;;5.30;2.05;;;;;;;18.02;49.81;98066.75;10372722;28;20721;-55
2022/07/13 19:48:46;;;;;;;2.85;2.03;;;;;;;17.86;50.34;98066.28;10374558;28;20516;-55
2022/07/13 19:53:45;;;;;;;6.22;2.63;;;;;;;17.74;50.28;98070.91;10373275;28;20067;-56
2022/07/13 19:58:44;;;;;;;5.45;1.92;;;;;;;17.64;50.35;98053.66;10374344;28;20073;-56
2022/07/13 20:03:50;;;;;;;3.53;1.80;;;;;;;17.59;50.16;98071.28;10374393;28;20035;-56
2022/07/13 20:08:50;;;;;;;6.50;2.72;;;;;;;17.56;50.22;98072.19;10374458;28;20068;-56
2022/07/13 20:13:49;;;;;;;5.75;2.55;;;;;;;17.47;50.36;98071.56;10372355;28;20130;-56
2022/07/13 20:18:49;;;;;;;3.85;2.40;;;;;;;17.42;50.51;98078.69;10373606;28;20511;-56
2022/07/13 20:23:49;;;;;;;4.70;2.95;;;;;;;17.35;50.71;98076.22;10373720;28;20064;-56
2022/07/13 20:28:49;;;;;;;4.93;2.50;;;;;;;17.30;51.05;98075.44;10373481;28;20056;-55
2022/07/13 20:33:51;;;;;;;4.10;2.30;;;;;;;17.25;51.48;98065.97;10373730;28;20073;-56
2022/07/13 20:38:51;;;;;;;5.55;2.30;;;;;;;17.08;52.22;98066.34;10373213;28;20570;-56
2022/07/13 20:43:52;;;;;;;5.00;2.47;;;;;;;16.99;52.96;98070.03;10373513;28;20111;-55
2022/07/13 20:48:51;;;;;;;5.38;3.25;;;;;;;16.87;54.31;98071.16;10372312;28;20052;-55
2022/07/13 20:53:50;;;;;;;7.97;2.97;;;;;;;16.76;56.28;98072.25;10372062;28;20478;-56
2022/07/13 20:58:50;;;;;;;;;;;;;;;16.57;57.04;98079.63;10373002;28;20419;-55
2022/07/13 21:03:49;;;;;;;;;;;;;;;16.46;57.44;98085.06;10372499;28;20024;-55
2022/07/13 21:08:48;;;;;;;7.43;2.88;;;;;;;16.29;58.57;98081.00;10372623;28;19984;-56
2022/07/13 21:13:47;;;;;;;;;;;;;;;16.17;59.40;98089.09;10373208;28;20076;-55
2022/07/13 21:18:46;;;;;;;5.60;3.40;;;;;;;16.09;58.99;98089.22;10371228;28;19956;-55
2022/07/13 21:23:45;;;;;;;7.97;3.30;;;;;;;16.03;59.41;98093.72;10371515;28;20075;-55
2022/07/13 21:28:45;;;;;;;11.90;4.57;;;;;;;15.96;60.42;98090.34;10372917;28;20075;-55
2022/07/13 21:33:44;;;;;;;9.65;4.00;;;;;;;15.89;60.54;98093.94;10372868;28;20080;-56
2022/07/13 21:38:43;;;;;;;;;;;;;;;15.81;61.48;98091.47;10371846;28;20059;-56
2022/07/13 21:43:42;;;;;;;7.50;3.38;;;;;;;15.74;62.33;98095.03;10372321;28;19952;-56
2022/07/13 21:48:41;;;;;;;3.72;2.67;;;;;;;15.63;62.90;98091.72;10370715;28;20076;-56
2022/07/13 21:53:40;;;;;;;;;;;;;;;15.57;63.57;98097.91;10371936;28;20108;-55
2022/07/13 21:58:39;;;;;;;5.53;3.13;;;;;;;15.34;64.80;98086.94;10371680;28;19917;-55
2022/07/13 22:03:39;;;;;;;7.30;3.13;;;;;;;15.17;64.82;98076.72;10370746;28;20164;-55
2022/07/13 22:08:37;;;;;;;6.43;3.08;;;;;;;15.16;64.71;98075.88;10370908;28;20052;-56
2022/07/13 22:13:55;;;;;;;;;;;;;;;15.10;65.02;98083.78;10371329;28;20064;-55
2022/07/13 22:19:31;;;;;;;5.32;2.35;;;;;;;14.94;66.60;98084.88;10374895;28;19959;-56
2022/07/13 22:25:07;;;;;;;7.78;2.97;;;;;;;14.80;67.36;98088.53;10375508;28;20063;-56
2022/07/13 22:30:44;;;;;;;6.13;3.03;;;;;;;14.67;68.44;98086.94;10377673;28;20060;-55
2022/07/13 22:36:20;;;;;;;4.85;2.92;;;;;;;14.45;69.31;98101.09;10378298;28;20072;-55
2022/07/13 22:41:57;;;;;;;5.10;2.85;;;;;;;14.24;69.70;98103.09;10375735;28;20138;-55
2022/07/13 22:47:33;;;;;;;4.40;2.97;;;;;;;14.11;70.50;98104.06;10376927;28;20061;-55
2022/07/13 22:53:09;;;;;;;4.55;2.78;;;;;;;14.08;70.42;98112.81;10377497;28;20068;-55
2022/07/13 22:58:45;;;;;;;4.70;2.90;;;;;;;14.05;71.27;98111.94;10377527;28;20670;-55
2022/07/13 23:04:22;;;;;;;4.32;3.15;;;;;;;14.03;71.12;98104.16;10376521;28;20068;-55
2022/07/13 23:09:58;;;;;;;5.82;3.33;;;;;;;13.95;71.44;98104.19;10377213;28;20060;-55
2022/07/13 23:15:34;;;;;;;6.75;3.97;;;;;;;13.93;71.79;98112.91;10376334;28;20087;-55
2022/07/13 23:21:10;;;;;;;7.85;3.67;;;;;;;13.92;71.27;98116.41;10376922;28;20068;-55
2022/07/13 23:26:47;;;;;;;7.85;4.40;;;;;;;13.87;71.58;98113.84;10375445;28;20076;-55
2022/07/13 23:32:08;;;;;;;7.57;3.90;;;;;;;13.75;72.40;98116.56;10376260;28;20508;-55
2022/07/13 23:37:10;;;;;;;6.78;3.70;;;;;;;13.63;72.77;98107.06;10371377;28;20080;-55
2022/07/13 23:42:09;;;;;;;8.23;3.90;;;;;;;13.57;73.08;98102.78;10375641;28;20083;-55
2022/07/13 23:47:08;;;;;;;5.70;3.95;;;;;;;13.54;73.53;98104.56;10375193;28;20053;-55
2022/07/13 23:52:07;;;;;;;7.90;4.40;;;;;;;13.54;73.41;98100.19;10375122;28;20696;-55